createdAt,value
2017-12-01T00:01:48.768Z,100125.14
2017-12-01T00:04:17.066Z,100128.59
2017-12-01T00:06:46.181Z,100126.84
2017-12-01T00:09:14.514Z,100130.36
2017-12-01T00:11:42.871Z,100126.44
2017-12-01T00:14:11.206Z,100127.77
2017-12-01T00:16:39.580Z,100129.94
2017-12-01T00:19:08.673Z,100129.88
2017-12-01T00:21:37.018Z,100126.91
2017-12-01T00:24:05.333Z,100135.16
2017-12-01T00:26:35.715Z,100134.70
2017-12-01T00:29:04.091Z,100132.11
2017-12-01T00:31:32.851Z,100134.30
2017-12-01T00:34:01.617Z,100141.68
2017-12-01T00:36:30.393Z,100142.06
2017-12-01T00:38:58.789Z,100146.91
2017-12-01T00:41:27.165Z,100145.16
2017-12-01T00:43:55.493Z,100145.16
2017-12-01T00:46:23.865Z,100146.48
2017-12-01T00:48:52.237Z,100148.63
2017-12-01T00:51:20.569Z,100153.84
2017-12-01T00:53:48.941Z,100164.22
2017-12-01T00:56:17.270Z,100159.00
2017-12-01T00:58:45.647Z,100159.03
2017-12-01T01:01:13.969Z,100166.47
2017-12-01T01:03:43.112Z,100170.80
2017-12-01T01:06:11.464Z,100175.59
2017-12-01T01:08:39.805Z,100175.19
2017-12-01T01:11:08.154Z,100182.14
2017-12-01T01:13:37.255Z,100180.01
2017-12-01T01:16:05.622Z,100186.09
2017-12-01T01:18:34.320Z,100184.71
2017-12-01T01:21:02.689Z,100183.84
2017-12-01T01:23:30.996Z,100191.22
2017-12-01T01:25:59.357Z,100195.09
2017-12-01T01:28:27.693Z,100191.61
2017-12-01T01:30:56.789Z,100194.22
2017-12-01T01:33:26.284Z,100195.53
2017-12-01T01:35:54.604Z,100195.95
2017-12-01T01:38:23.001Z,100204.16
2017-12-01T01:40:52.413Z,100208.12
2017-12-01T01:43:21.556Z,100208.17
2017-12-01T01:45:49.941Z,100209.92
2017-12-01T01:48:18.272Z,100210.78
2017-12-01T01:50:47.056Z,100218.20
2017-12-01T01:53:16.168Z,100213.39
2017-12-01T01:55:44.536Z,100213.38
2017-12-01T01:58:12.853Z,100217.77
2017-12-01T02:00:41.221Z,100217.77
2017-12-01T02:03:09.989Z,100220.81
2017-12-01T02:05:38.729Z,100223.05
2017-12-01T02:08:07.129Z,100223.92
2017-12-01T02:10:35.452Z,100226.97
2017-12-01T02:13:03.801Z,100225.23
2017-12-01T02:15:32.932Z,100226.95
2017-12-01T02:18:02.380Z,100224.83
2017-12-01T02:20:30.756Z,100234.84
2017-12-01T02:22:59.100Z,100227.83
2017-12-01T02:25:27.472Z,100229.09
2017-12-01T02:27:55.852Z,100238.24
2017-12-01T02:30:24.626Z,100241.73
2017-12-01T02:32:53.108Z,100239.53
2017-12-01T02:35:21.468Z,100244.75
2017-12-01T02:37:49.811Z,100241.73
2017-12-01T02:40:18.976Z,100248.27
2017-12-01T02:42:47.334Z,100249.16
2017-12-01T02:45:15.767Z,100254.84
2017-12-01T02:47:44.108Z,100254.80
2017-12-01T02:50:12.471Z,100252.18
2017-12-01T02:52:40.808Z,100253.93
2017-12-01T02:55:09.940Z,100252.64
2017-12-01T02:57:38.260Z,100257.83
2017-12-01T03:00:06.634Z,100259.53
2017-12-01T03:02:34.956Z,100259.92
2017-12-01T03:05:04.141Z,100267.33
2017-12-01T03:07:32.488Z,100260.36
2017-12-01T03:10:00.839Z,100272.09
2017-12-01T03:12:29.171Z,100282.05
2017-12-01T03:14:58.315Z,100272.06
2017-12-01T03:17:27.428Z,100275.98
2017-12-01T03:19:55.752Z,100274.66
2017-12-01T03:22:24.895Z,100277.70
2017-12-01T03:24:53.235Z,100274.63
2017-12-01T03:27:22.715Z,100279.44
2017-12-01T03:29:51.116Z,100275.09
2017-12-01T03:32:19.444Z,100278.97
2017-12-01T03:34:48.193Z,100278.99
2017-12-01T03:37:16.988Z,100280.73
2017-12-01T03:39:46.111Z,100290.78
2017-12-01T03:42:14.467Z,100295.52
2017-12-01T03:44:42.868Z,100292.02
2017-12-01T03:47:11.192Z,100297.22
2017-12-01T03:49:39.544Z,100294.14
2017-12-01T03:52:08.673Z,100303.66
2017-12-01T03:54:37.023Z,100300.64
2017-12-01T03:57:06.214Z,100311.06
2017-12-01T03:59:36.112Z,100311.05
2017-12-01T04:02:04.479Z,100310.12
2017-12-01T04:04:33.207Z,100311.94
2017-12-01T04:07:02.291Z,100312.31
2017-12-01T04:09:31.402Z,100308.80
2017-12-01T04:12:00.512Z,100309.14
2017-12-01T04:14:30.199Z,100316.81
2017-12-01T04:16:58.607Z,100315.46
2017-12-01T04:19:26.979Z,100324.66
2017-12-01T04:21:55.343Z,100332.14
2017-12-01T04:24:23.699Z,100328.63
2017-12-01T04:26:52.815Z,100332.16
2017-12-01T04:29:21.167Z,100332.14
2017-12-01T04:31:49.531Z,100334.69
2017-12-01T04:34:17.887Z,100329.46
2017-12-01T04:36:46.631Z,100334.23
2017-12-01T04:39:14.953Z,100336.85
2017-12-01T04:41:43.727Z,100339.48
2017-12-01T04:44:12.099Z,100339.04
2017-12-01T04:46:40.455Z,100338.67
2017-12-01T04:49:09.203Z,100339.06
2017-12-01T04:51:37.566Z,100340.31
2017-12-01T04:54:05.926Z,100341.93
2017-12-01T04:56:34.255Z,100354.48
2017-12-01T04:59:02.712Z,100353.56
2017-12-01T05:01:31.388Z,100363.53
2017-12-01T05:03:59.731Z,100363.96
2017-12-01T05:06:28.126Z,100367.45
2017-12-01T05:08:56.567Z,100366.47
2017-12-01T05:11:25.791Z,100369.45
2017-12-01T05:13:54.431Z,100370.73
2017-12-01T05:16:22.906Z,100372.17
2017-12-01T05:18:51.655Z,100379.63
2017-12-01T05:21:20.128Z,100385.58
2017-12-01T05:23:49.204Z,100393.30
2017-12-01T05:26:17.558Z,100401.97
2017-12-01T05:28:45.878Z,100405.91
2017-12-01T05:31:14.279Z,100400.20
2017-12-01T05:33:42.653Z,100404.47
2017-12-01T05:36:11.031Z,100409.59
2017-12-01T05:38:39.374Z,100407.80
2017-12-01T05:41:07.756Z,100418.59
2017-12-01T05:43:36.511Z,100418.08
2017-12-01T05:46:05.320Z,100417.72
2017-12-01T05:48:34.110Z,100417.66
2017-12-01T05:51:02.444Z,100427.57
2017-12-01T05:53:30.803Z,100434.83
2017-12-01T05:55:59.182Z,100427.66
2017-12-01T05:58:27.566Z,100434.48
2017-12-01T06:00:55.902Z,100439.59
2017-12-01T06:03:24.258Z,100435.99
2017-12-01T06:05:52.610Z,100445.38
2017-12-01T06:08:21.001Z,100453.46
2017-12-01T06:10:49.754Z,100462.08
2017-12-01T06:13:18.119Z,100462.85
2017-12-01T06:15:46.426Z,100466.63
2017-12-01T06:18:15.218Z,100462.95
2017-12-01T06:20:43.570Z,100465.42
2017-12-01T06:23:12.378Z,100467.87
2017-12-01T06:25:41.670Z,100471.69
2017-12-01T06:28:10.399Z,100478.59
2017-12-01T06:30:38.931Z,100483.37
2017-12-01T06:33:07.686Z,100489.89
2017-12-01T06:35:36.146Z,100498.23
2017-12-01T06:38:04.933Z,100503.97
2017-12-01T06:40:34.028Z,100501.58
2017-12-01T06:43:02.403Z,100501.84
2017-12-01T06:45:30.766Z,100507.66
2017-12-01T06:47:59.550Z,100512.92
2017-12-01T06:50:27.873Z,100511.75
2017-12-01T06:52:56.378Z,100518.77
2017-12-01T06:55:24.714Z,100518.41
2017-12-01T06:57:53.442Z,100521.44
2017-12-01T07:00:22.598Z,100516.56
2017-12-01T07:02:51.698Z,100512.31
2017-12-01T07:05:20.851Z,100516.18
2017-12-01T07:07:49.166Z,100523.11
2017-12-01T07:10:18.249Z,100520.58
2017-12-01T07:12:47.002Z,100515.86
2017-12-01T07:15:16.081Z,100522.44
2017-12-01T07:17:44.434Z,100518.57
2017-12-01T07:20:13.566Z,100525.61
2017-12-01T07:22:41.890Z,100525.61
2017-12-01T07:25:11.006Z,100531.81
2017-12-01T07:27:39.330Z,100539.25
2017-12-01T07:30:08.072Z,100541.02
2017-12-01T07:32:36.410Z,100546.30
2017-12-01T07:35:04.817Z,100541.62
2017-12-01T07:37:33.907Z,100546.02
2017-12-01T07:40:03.033Z,100549.92
2017-12-01T07:42:31.390Z,100558.25
2017-12-01T07:45:01.670Z,100557.92
2017-12-01T07:47:30.023Z,100558.13
2017-12-01T07:49:58.361Z,100562.46
2017-12-01T07:52:26.729Z,100571.52
2017-12-01T07:54:55.881Z,100575.52
2017-12-01T07:57:24.642Z,100577.60
2017-12-01T07:59:52.989Z,100576.88
2017-12-01T08:02:22.520Z,100582.63
2017-12-01T08:04:50.865Z,100583.98
2017-12-01T08:07:19.477Z,100588.77
2017-12-01T08:09:47.861Z,100595.91
2017-12-01T08:12:16.254Z,100604.65
2017-12-01T08:14:44.673Z,100596.80
2017-12-01T08:17:29.089Z,100602.87
2017-12-01T08:19:57.500Z,100608.38
2017-12-01T08:22:43.541Z,100609.20
2017-12-01T08:25:33.689Z,100610.30
2017-12-01T08:28:02.052Z,100617.67
2017-12-01T08:30:31.232Z,100628.22
2017-12-01T08:32:59.671Z,100627.89
2017-12-01T08:35:28.380Z,100627.66
2017-12-01T08:37:56.785Z,100640.00
2017-12-01T08:40:26.101Z,100643.99
2017-12-01T08:42:54.477Z,100650.23
2017-12-01T08:45:23.262Z,100654.66
2017-12-01T08:47:51.620Z,100647.81
2017-12-01T08:50:20.371Z,100651.44
2017-12-01T08:52:48.752Z,100654.37
2017-12-01T08:55:17.168Z,100654.70
2017-12-01T08:57:45.592Z,100665.66
2017-12-01T09:00:14.760Z,100662.34
2017-12-01T09:02:43.172Z,100665.27
2017-12-01T09:05:11.940Z,100672.98
2017-12-01T09:07:40.324Z,100678.91
2017-12-01T09:10:08.695Z,100680.50
2017-12-01T09:12:37.503Z,100686.70
2017-12-01T09:15:06.333Z,100690.27
2017-12-01T09:17:35.506Z,100687.47
2017-12-01T09:20:03.918Z,100696.69
2017-12-01T09:22:32.272Z,100691.30
2017-12-01T09:25:01.441Z,100689.77
2017-12-01T09:27:30.566Z,100694.65
2017-12-01T09:30:00.101Z,100696.73
2017-12-01T09:32:28.468Z,100692.08
2017-12-01T09:34:57.628Z,100696.04
2017-12-01T09:37:26.398Z,100710.55
2017-12-01T09:39:55.517Z,100709.70
2017-12-01T09:42:24.006Z,100712.24
2017-12-01T09:44:52.436Z,100705.67
2017-12-01T09:47:20.812Z,100709.35
2017-12-01T09:49:49.972Z,100712.52
2017-12-01T09:52:18.396Z,100713.67
2017-12-01T09:54:46.792Z,100709.31
2017-12-01T09:57:16.520Z,100716.88
2017-12-01T09:59:44.892Z,100713.42
2017-12-01T10:02:13.226Z,100719.09
2017-12-01T10:04:41.636Z,100721.51
2017-12-01T10:07:10.744Z,100723.05
2017-12-01T10:09:39.512Z,100724.91
2017-12-01T10:12:08.644Z,100726.36
2017-12-01T10:14:37.436Z,100726.86
2017-12-01T10:17:05.848Z,100727.50
2017-12-01T10:19:34.180Z,100733.09
2017-12-01T10:22:02.573Z,100738.92
2017-12-01T10:24:31.673Z,100744.23
2017-12-01T10:27:00.048Z,100730.80
2017-12-01T10:29:28.391Z,100732.58
2017-12-01T10:31:57.168Z,100736.35
2017-12-01T10:34:25.508Z,100741.06
2017-12-01T10:36:53.884Z,100738.02
2017-12-01T10:39:22.272Z,100737.05
2017-12-01T10:41:50.663Z,100736.93
2017-12-01T10:44:19.028Z,100743.06
2017-12-01T10:46:47.440Z,100748.63
2017-12-01T10:49:15.779Z,100747.23
2017-12-01T10:51:44.155Z,100747.71
2017-12-01T10:54:12.599Z,100744.78
2017-12-01T10:56:40.971Z,100754.86
2017-12-01T10:59:09.323Z,100752.74
2017-12-01T11:01:37.683Z,100761.54
2017-12-01T11:04:06.080Z,100762.82
2017-12-01T11:06:34.435Z,100763.78
2017-12-01T11:09:02.800Z,100762.97
2017-12-01T11:11:31.200Z,100756.93
2017-12-01T11:13:59.612Z,100760.52
2017-12-01T11:16:27.975Z,100759.15
2017-12-01T11:18:56.351Z,100756.38
2017-12-01T11:21:25.141Z,100759.86
2017-12-01T11:23:54.283Z,100763.46
2017-12-01T11:26:22.663Z,100756.11
2017-12-01T11:28:51.010Z,100760.60
2017-12-01T11:31:19.420Z,100765.95
2017-12-01T11:33:47.747Z,100770.31
2017-12-01T11:36:16.896Z,100778.23
2017-12-01T11:38:45.252Z,100769.85
2017-12-01T11:41:13.651Z,100768.13
2017-12-01T11:43:42.383Z,100769.77
2017-12-01T11:46:10.735Z,100778.95
2017-12-01T11:48:39.132Z,100780.20
2017-12-01T11:51:07.487Z,100784.48
2017-12-01T11:53:36.240Z,100787.13
2017-12-01T11:56:04.640Z,100784.12
2017-12-01T11:58:32.985Z,100780.41
2017-12-01T12:01:01.365Z,100787.45
2017-12-01T12:03:29.778Z,100783.06
2017-12-01T12:05:58.148Z,100787.06
2017-12-01T12:08:26.487Z,100786.53
2017-12-01T12:10:54.823Z,100790.08
2017-12-01T12:13:24.095Z,100794.08
2017-12-01T12:15:52.509Z,100803.67
2017-12-01T12:18:21.304Z,100807.54
2017-12-01T12:20:50.081Z,100800.13
2017-12-01T12:23:19.220Z,100800.44
2017-12-01T12:25:47.606Z,100798.19
2017-12-01T12:28:15.954Z,100799.94
2017-12-01T12:30:44.351Z,100807.38
2017-12-01T12:33:12.719Z,100804.30
2017-12-01T12:35:41.207Z,100810.13
2017-12-01T12:38:10.323Z,100808.45
2017-12-01T12:40:38.727Z,100808.27
2017-12-01T12:43:07.070Z,100811.43
2017-12-01T12:45:35.546Z,100818.91
2017-12-01T12:48:04.689Z,100821.11
2017-12-01T12:50:33.083Z,100824.45
2017-12-01T12:53:01.411Z,100824.89
2017-12-01T12:55:30.636Z,100823.27
2017-12-01T12:57:59.035Z,100822.78
2017-12-01T13:00:27.397Z,100828.55
2017-12-01T13:02:55.798Z,100823.34
2017-12-01T13:05:24.180Z,100832.95
2017-12-01T13:07:52.530Z,100838.66
2017-12-01T13:10:20.922Z,100841.69
2017-12-01T13:12:49.312Z,100839.53
2017-12-01T13:15:17.730Z,100838.66
2017-12-01T13:17:46.113Z,100837.33
2017-12-01T13:20:14.902Z,100839.94
2017-12-01T13:22:43.298Z,100840.77
2017-12-01T13:25:12.070Z,100839.94
2017-12-01T13:27:40.854Z,100837.25
2017-12-01T13:30:09.222Z,100847.27
2017-12-01T13:32:37.628Z,100846.41
2017-12-01T13:35:06.022Z,100851.70
2017-12-01T13:37:34.434Z,100851.27
2017-12-01T13:40:03.543Z,100855.64
2017-12-01T13:42:32.710Z,100856.25
2017-12-01T13:45:01.070Z,100858.14
2017-12-01T13:47:29.421Z,100858.73
2017-12-01T13:49:58.589Z,100856.11
2017-12-01T13:52:27.741Z,100863.47
2017-12-01T13:54:57.002Z,100872.55
2017-12-01T13:57:25.350Z,100862.31
2017-12-01T13:59:53.723Z,100870.47
2017-12-01T14:02:22.097Z,100875.59
2017-12-01T14:04:50.469Z,100876.36
2017-12-01T14:07:18.864Z,100884.55
2017-12-01T14:09:47.595Z,100889.45
2017-12-01T14:12:15.918Z,100899.02
2017-12-01T14:14:45.125Z,100893.26
2017-12-01T14:17:14.305Z,100893.16
2017-12-01T14:19:44.217Z,100898.41
2017-12-01T14:22:12.577Z,100902.21
2017-12-01T14:24:41.362Z,100903.42
2017-12-01T14:27:09.726Z,100911.21
2017-12-01T14:29:38.506Z,100920.25
2017-12-01T14:32:07.618Z,100913.23
2017-12-01T14:34:36.666Z,100923.09
2017-12-01T14:37:05.059Z,100931.83
2017-12-01T14:39:33.456Z,100941.83
2017-12-01T14:42:01.791Z,100941.28
2017-12-01T14:44:30.174Z,100943.76
2017-12-01T14:46:58.583Z,100951.02
2017-12-01T14:49:26.979Z,100960.02
2017-12-01T14:51:55.560Z,100961.63
2017-12-01T14:54:23.958Z,100966.23
2017-12-01T14:56:52.313Z,100969.63
2017-12-01T14:59:20.657Z,100972.59
2017-12-01T15:01:49.794Z,100976.88
2017-12-01T15:04:18.178Z,100980.25
2017-12-01T15:06:46.537Z,100976.73
2017-12-01T15:09:14.918Z,100986.76
2017-12-01T15:11:43.641Z,100988.42
2017-12-01T15:14:12.001Z,100994.02
2017-12-01T15:16:40.782Z,100996.09
2017-12-01T15:19:09.239Z,101001.63
2017-12-01T15:21:37.994Z,101000.69
2017-12-01T15:24:07.127Z,101006.37
2017-12-01T15:26:36.629Z,100998.95
2017-12-01T15:29:05.028Z,101008.59
2017-12-01T15:31:33.377Z,101007.77
2017-12-01T15:34:01.769Z,101010.29
2017-12-01T15:36:30.181Z,101015.99
2017-12-01T15:38:58.562Z,101018.16
2017-12-01T15:41:26.933Z,101022.63
2017-12-01T15:43:55.573Z,101026.05
2017-12-01T15:46:23.989Z,101032.19
2017-12-01T15:48:52.397Z,101028.27
2017-12-01T15:51:21.251Z,101035.61
2017-12-01T15:53:49.618Z,101041.31
2017-12-01T15:56:18.037Z,101041.33
2017-12-01T15:58:47.198Z,101040.44
2017-12-01T16:01:16.098Z,101042.50
2017-12-01T16:03:44.566Z,101048.45
2017-12-01T16:06:13.761Z,101044.91
2017-12-01T16:08:42.138Z,101050.92
2017-12-01T16:11:10.507Z,101052.79
2017-12-01T16:13:39.665Z,101058.83
2017-12-01T16:16:09.574Z,101059.72
2017-12-01T16:18:38.814Z,101064.36
2017-12-01T16:21:07.606Z,101064.73
2017-12-01T16:23:36.790Z,101064.42
2017-12-01T16:26:05.226Z,101071.99
2017-12-01T16:28:33.681Z,101070.65
2017-12-01T16:31:02.253Z,101074.00
2017-12-01T16:33:30.651Z,101074.77
2017-12-01T16:35:59.116Z,101082.91
2017-12-01T16:38:28.354Z,101090.08
2017-12-01T16:40:56.750Z,101103.23
2017-12-01T16:43:25.777Z,101098.45
2017-12-01T16:45:54.250Z,101099.84
2017-12-01T16:48:23.992Z,101099.81
2017-12-01T16:50:53.197Z,101100.05
2017-12-01T16:53:21.620Z,101102.45
2017-12-01T16:55:51.156Z,101107.42
2017-12-01T16:58:19.583Z,101113.76
2017-12-01T17:00:48.037Z,101116.61
2017-12-01T17:03:16.836Z,101123.07
2017-12-01T17:05:45.212Z,101128.97
2017-12-01T17:08:14.341Z,101125.35
2017-12-01T17:10:42.745Z,101124.37
2017-12-01T17:13:11.532Z,101128.77
2017-12-01T17:15:41.412Z,101124.30
2017-12-01T17:18:09.768Z,101129.38
2017-12-01T17:20:38.136Z,101134.08
2017-12-01T17:23:08.242Z,101144.86
2017-12-01T17:25:37.760Z,101145.95
2017-12-01T17:28:06.522Z,101146.40
2017-12-01T17:30:34.900Z,101145.52
2017-12-01T17:33:03.306Z,101150.94
2017-12-01T17:35:32.447Z,101152.03
2017-12-01T17:38:01.257Z,101162.71
2017-12-01T17:40:31.225Z,101166.94
2017-12-01T17:42:59.614Z,101174.22
2017-12-01T17:45:28.782Z,101178.21
2017-12-01T17:47:57.240Z,101196.69
2017-12-01T17:50:26.012Z,101199.50
2017-12-01T17:52:54.818Z,101198.67
2017-12-01T17:55:23.228Z,101206.04
2017-12-01T17:57:51.636Z,101207.73
2017-12-01T18:00:20.791Z,101206.87
2017-12-01T18:02:49.944Z,101209.90
2017-12-01T18:05:18.279Z,101218.55
2017-12-01T18:07:46.746Z,101226.86
2017-12-01T18:10:15.143Z,101230.91
2017-12-01T18:12:43.500Z,101235.41
2017-12-01T18:15:11.888Z,101234.05
2017-12-01T18:17:41.009Z,101234.20
2017-12-01T18:20:11.066Z,101231.20
2017-12-01T18:22:39.844Z,101240.25
2017-12-01T18:25:08.248Z,101245.86
2017-12-01T18:27:36.692Z,101247.52
2017-12-01T18:30:06.017Z,101259.36
2017-12-01T18:32:34.434Z,101262.56
2017-12-01T18:35:04.422Z,101268.00
2017-12-01T18:37:33.800Z,101254.66
2017-12-01T18:40:03.728Z,101255.67
2017-12-01T18:42:32.858Z,101263.22
2017-12-01T18:45:02.000Z,101268.20
2017-12-01T18:47:30.767Z,101266.87
2017-12-01T18:49:59.963Z,101272.59
2017-12-01T18:52:29.681Z,101277.45
2017-12-01T18:54:58.848Z,101239.23
2017-12-01T18:57:28.057Z,101269.48
2017-12-01T18:59:57.084Z,101272.35
2017-12-01T19:02:25.607Z,101271.45
2017-12-01T19:04:54.019Z,101274.19
2017-12-01T19:07:22.629Z,101267.97
2017-12-01T19:09:52.045Z,101271.12
2017-12-01T19:12:20.425Z,101268.08
2017-12-01T19:14:48.832Z,101279.16
2017-12-01T19:17:17.797Z,101278.68
2017-12-01T19:19:46.955Z,101280.82
2017-12-01T19:22:16.100Z,101281.22
2017-12-01T19:24:44.546Z,101285.06
2017-12-01T19:27:13.699Z,101285.66
2017-12-01T19:29:43.867Z,101286.83
2017-12-01T19:32:13.601Z,101286.57
2017-12-01T19:34:42.071Z,101292.84
2017-12-01T19:37:11.275Z,101292.88
2017-12-01T19:39:39.675Z,101303.41
2017-12-01T19:42:08.092Z,101305.02
2017-12-01T19:44:40.439Z,101306.68
2017-12-01T19:47:10.186Z,101308.84
2017-12-01T19:49:38.691Z,101308.41
2017-12-01T19:52:07.091Z,101312.86
2017-12-01T19:54:35.579Z,101317.91
2017-12-01T19:57:04.787Z,101323.30
2017-12-01T19:59:33.677Z,101330.59
2017-12-01T20:02:02.405Z,101338.39
2017-12-01T20:04:31.674Z,101342.75
2017-12-01T20:07:00.267Z,101343.09
2017-12-01T20:09:28.723Z,101341.13
2017-12-01T20:11:58.627Z,101337.27
2017-12-01T20:14:29.383Z,101343.77
2017-12-01T20:16:57.946Z,101333.42
2017-12-01T20:19:26.927Z,101339.67
2017-12-01T20:21:55.315Z,101345.60
2017-12-01T20:24:23.963Z,101340.90
2017-12-01T20:26:53.609Z,101349.32
2017-12-01T20:29:22.013Z,101354.34
2017-12-01T20:31:50.518Z,101361.83
2017-12-01T20:34:19.747Z,101352.00
2017-12-01T20:36:48.667Z,101352.05
2017-12-01T20:39:18.391Z,101359.00
2017-12-01T20:41:49.223Z,101357.50
2017-12-01T20:44:18.387Z,101362.46
2017-12-01T20:46:47.187Z,101361.91
2017-12-01T20:49:16.444Z,101365.64
2017-12-01T20:51:44.915Z,101366.53
2017-12-01T20:54:13.411Z,101380.90
2017-12-01T20:56:42.207Z,101378.14
2017-12-01T20:59:10.737Z,101375.05
2017-12-01T21:01:39.295Z,101375.52
2017-12-01T21:04:09.114Z,101368.05
2017-12-01T21:06:37.647Z,101375.93
2017-12-01T21:09:10.211Z,101378.06
2017-12-01T21:11:40.650Z,101380.67
2017-12-01T21:14:13.665Z,101387.69
2017-12-01T21:16:43.446Z,101389.05
2017-12-01T21:19:12.695Z,101395.94
2017-12-01T21:21:42.764Z,101406.78
2017-12-01T21:24:11.399Z,101397.81
2017-12-01T21:26:39.962Z,101400.05
2017-12-01T21:29:10.485Z,101397.38
2017-12-01T21:31:39.922Z,101398.39
2017-12-01T21:34:08.482Z,101400.68
2017-12-01T21:36:38.478Z,101410.53
2017-12-01T21:39:06.910Z,101405.98
2017-12-01T21:41:35.395Z,101404.72
2017-12-01T21:44:04.798Z,101404.77
2017-12-01T21:46:34.162Z,101405.83
2017-12-01T21:49:02.750Z,101404.27
2017-12-01T21:51:31.285Z,101410.37
2017-12-01T21:54:01.190Z,101411.80
2017-12-01T21:56:29.738Z,101413.66
2017-12-01T22:03:29.256Z,101420.48
2017-12-01T22:05:58.650Z,101416.50
2017-12-01T22:08:29.825Z,101416.10
2017-12-01T22:10:59.058Z,101415.89
2017-12-01T22:13:29.674Z,101421.25
2017-12-01T22:15:59.003Z,101421.44
2017-12-01T22:18:27.654Z,101422.25
2017-12-01T22:20:56.118Z,101422.63
2017-12-01T22:23:25.942Z,101420.32
2017-12-01T22:25:54.522Z,101410.99
2017-12-01T22:28:26.727Z,101419.73
2017-12-01T22:30:57.502Z,101431.84
2017-12-01T22:33:26.198Z,101433.48
2017-12-01T22:35:54.810Z,101431.39
2017-12-01T22:38:23.241Z,101438.23
2017-12-01T22:40:51.649Z,101439.42
2017-12-01T22:43:20.116Z,101445.27
2017-12-01T22:45:49.276Z,101437.31
2017-12-01T22:48:17.690Z,101441.45
2017-12-01T22:50:46.174Z,101443.23
2017-12-01T22:53:14.577Z,101442.33
2017-12-01T22:55:43.749Z,101443.68
2017-12-01T22:58:12.130Z,101445.52
2017-12-01T23:00:40.573Z,101447.98
2017-12-01T23:03:08.985Z,101447.44
2017-12-01T23:05:37.402Z,101444.67
2017-12-01T23:08:05.793Z,101437.36
2017-12-01T23:10:34.193Z,101453.60
2017-12-01T23:13:03.728Z,101455.27
2017-12-01T23:15:33.198Z,101456.73
2017-12-01T23:18:02.595Z,101461.13
2017-12-01T23:20:31.078Z,101460.00
2017-12-01T23:22:59.988Z,101462.66
2017-12-01T23:25:28.995Z,101459.73
2017-12-01T23:27:57.445Z,101464.16
2017-12-01T23:30:26.409Z,101453.90
2017-12-01T23:32:55.372Z,101459.23
2017-12-01T23:35:23.845Z,101465.27
2017-12-01T23:37:52.353Z,101457.09
2017-12-01T23:40:21.706Z,101464.55
2017-12-01T23:42:50.690Z,101466.74
2017-12-01T23:45:19.401Z,101465.26
2017-12-01T23:47:47.950Z,101466.89
2017-12-01T23:50:17.030Z,101473.16
2017-12-01T23:52:45.505Z,101475.50
2017-12-01T23:55:14.082Z,101473.31
2017-12-01T23:57:44.752Z,101476.63
